sensor_id;sensor_type;location;lat;lon;timestamp;P1;durP1;ratioP1;P2;durP2;ratioP2
2720;SDS011;1368;49.484;11.112;2023-03-19T00:01:06;14.53;;;7.47;;
2720;SDS011;1368;49.484;11.112;2023-03-19T00:03:33;12.43;;;7.90;;
2720;SDS011;1368;49.484;11.112;2023-03-19T00:05:59;13.20;;;8.03;;
2720;SDS011;1368;49.484;11.112;2023-03-19T00:08:26;14.60;;;8.87;;
2720;SDS011;1368;49.484;11.112;2023-03-19T00:10:52;13.10;;;8.20;;
2720;SDS011;1368;49.484;11.112;2023-03-19T00:13:17;12.03;;;8.90;;
2720;SDS011;1368;49.484;11.112;2023-03-19T00:15:43;13.80;;;9.37;;
2720;SDS011;1368;49.484;11.112;2023-03-19T00:18:11;14.00;;;8.17;;
2720;SDS011;1368;49.484;11.112;2023-03-19T00:20:36;13.37;;;8.50;;
2720;SDS011;1368;49.484;11.112;2023-03-19T00:23:02;11.73;;;8.37;;
2720;SDS011;1368;49.484;11.112;2023-03-19T00:25:28;14.03;;;8.40;;
2720;SDS011;1368;49.484;11.112;2023-03-19T00:27:54;16.10;;;8.30;;
2720;SDS011;1368;49.484;11.112;2023-03-19T00:30:20;12.50;;;8.10;;
2720;SDS011;1368;49.484;11.112;2023-03-19T00:32:46;13.70;;;9.00;;
2720;SDS011;1368;49.484;11.112;2023-03-19T00:35:12;14.03;;;8.50;;
2720;SDS011;1368;49.484;11.112;2023-03-19T00:37:38;10.87;;;9.00;;
2720;SDS011;1368;49.484;11.112;2023-03-19T00:40:04;15.07;;;8.90;;
2720;SDS011;1368;49.484;11.112;2023-03-19T00:42:30;14.07;;;9.10;;
2720;SDS011;1368;49.484;11.112;2023-03-19T00:44:56;11.13;;;8.30;;
2720;SDS011;1368;49.484;11.112;2023-03-19T00:47:22;13.97;;;9.30;;
2720;SDS011;1368;49.484;11.112;2023-03-19T00:49:48;14.23;;;8.17;;
2720;SDS011;1368;49.484;11.112;2023-03-19T00:52:13;13.77;;;8.57;;
2720;SDS011;1368;49.484;11.112;2023-03-19T00:54:39;13.90;;;7.70;;
2720;SDS011;1368;49.484;11.112;2023-03-19T00:57:05;11.83;;;8.30;;
2720;SDS011;1368;49.484;11.112;2023-03-19T00:59:31;12.53;;;8.67;;
2720;SDS011;1368;49.484;11.112;2023-03-19T01:01:56;12.97;;;9.07;;
2720;SDS011;1368;49.484;11.112;2023-03-19T01:04:22;14.33;;;9.57;;
2720;SDS011;1368;49.484;11.112;2023-03-19T01:06:48;16.67;;;9.83;;
2720;SDS011;1368;49.484;11.112;2023-03-19T01:09:14;12.07;;;8.80;;
2720;SDS011;1368;49.484;11.112;2023-03-19T01:11:40;13.60;;;9.60;;
2720;SDS011;1368;49.484;11.112;2023-03-19T01:14:05;25.50;;;10.60;;
2720;SDS011;1368;49.484;11.112;2023-03-19T01:16:31;12.57;;;8.53;;
2720;SDS011;1368;49.484;11.112;2023-03-19T01:18:58;14.60;;;9.30;;
2720;SDS011;1368;49.484;11.112;2023-03-19T01:21:24;15.20;;;9.90;;
2720;SDS011;1368;49.484;11.112;2023-03-19T01:23:51;14.07;;;9.47;;
2720;SDS011;1368;49.484;11.112;2023-03-19T01:26:17;12.87;;;9.70;;
2720;SDS011;1368;49.484;11.112;2023-03-19T01:28:43;16.60;;;10.40;;
2720;SDS011;1368;49.484;11.112;2023-03-19T01:31:08;15.33;;;10.50;;
2720;SDS011;1368;49.484;11.112;2023-03-19T01:33:34;26.60;;;11.10;;
2720;SDS011;1368;49.484;11.112;2023-03-19T01:36:01;16.93;;;10.80;;
2720;SDS011;1368;49.484;11.112;2023-03-19T01:38:29;14.27;;;9.60;;
2720;SDS011;1368;49.484;11.112;2023-03-19T01:40:55;12.93;;;9.00;;
2720;SDS011;1368;49.484;11.112;2023-03-19T01:43:22;12.20;;;9.23;;
2720;SDS011;1368;49.484;11.112;2023-03-19T01:45:50;16.77;;;8.97;;
2720;SDS011;1368;49.484;11.112;2023-03-19T01:48:33;12.70;;;8.73;;
2720;SDS011;1368;49.484;11.112;2023-03-19T01:51:06;15.23;;;9.60;;
2720;SDS011;1368;49.484;11.112;2023-03-19T01:53:35;14.73;;;9.70;;
2720;SDS011;1368;49.484;11.112;2023-03-19T01:56:06;14.70;;;10.30;;
2720;SDS011;1368;49.484;11.112;2023-03-19T01:58:36;13.30;;;9.50;;
2720;SDS011;1368;49.484;11.112;2023-03-19T02:01:04;13.63;;;9.53;;
2720;SDS011;1368;49.484;11.112;2023-03-19T02:03:29;11.70;;;9.10;;
2720;SDS011;1368;49.484;11.112;2023-03-19T02:05:57;13.37;;;9.43;;
2720;SDS011;1368;49.484;11.112;2023-03-19T02:08:23;15.60;;;9.53;;
2720;SDS011;1368;49.484;11.112;2023-03-19T02:10:50;13.80;;;10.47;;
2720;SDS011;1368;49.484;11.112;2023-03-19T02:13:18;14.80;;;10.00;;
2720;SDS011;1368;49.484;11.112;2023-03-19T02:15:43;19.30;;;10.23;;
2720;SDS011;1368;49.484;11.112;2023-03-19T02:18:09;14.90;;;9.50;;
2720;SDS011;1368;49.484;11.112;2023-03-19T02:20:54;11.17;;;8.93;;
2720;SDS011;1368;49.484;11.112;2023-03-19T02:26:28;17.40;;;11.00;;
2720;SDS011;1368;49.484;11.112;2023-03-19T02:28:54;12.00;;;8.70;;
2720;SDS011;1368;49.484;11.112;2023-03-19T02:31:20;14.90;;;9.27;;
2720;SDS011;1368;49.484;11.112;2023-03-19T02:36:28;17.37;;;8.97;;
2720;SDS011;1368;49.484;11.112;2023-03-19T02:38:57;15.20;;;10.20;;
2720;SDS011;1368;49.484;11.112;2023-03-19T02:41:26;12.50;;;8.93;;
2720;SDS011;1368;49.484;11.112;2023-03-19T02:43:53;11.73;;;8.70;;
2720;SDS011;1368;49.484;11.112;2023-03-19T02:46:19;14.90;;;9.50;;
2720;SDS011;1368;49.484;11.112;2023-03-19T02:48:45;14.63;;;9.57;;
2720;SDS011;1368;49.484;11.112;2023-03-19T02:51:10;11.60;;;9.00;;
2720;SDS011;1368;49.484;11.112;2023-03-19T02:53:37;11.90;;;9.10;;
2720;SDS011;1368;49.484;11.112;2023-03-19T02:56:03;14.00;;;9.30;;
2720;SDS011;1368;49.484;11.112;2023-03-19T02:58:29;13.73;;;9.20;;
2720;SDS011;1368;49.484;11.112;2023-03-19T03:00:54;16.90;;;9.40;;
2720;SDS011;1368;49.484;11.112;2023-03-19T03:03:20;13.23;;;9.20;;
2720;SDS011;1368;49.484;11.112;2023-03-19T03:05:46;17.53;;;9.40;;
2720;SDS011;1368;49.484;11.112;2023-03-19T03:08:11;13.97;;;9.10;;
2720;SDS011;1368;49.484;11.112;2023-03-19T03:10:37;12.70;;;10.20;;
2720;SDS011;1368;49.484;11.112;2023-03-19T03:13:02;13.47;;;9.63;;
2720;SDS011;1368;49.484;11.112;2023-03-19T03:15:29;17.40;;;10.97;;
2720;SDS011;1368;49.484;11.112;2023-03-19T03:17:55;15.90;;;9.87;;
2720;SDS011;1368;49.484;11.112;2023-03-19T03:20:21;12.50;;;9.63;;
2720;SDS011;1368;49.484;11.112;2023-03-19T03:22:46;15.00;;;10.20;;
2720;SDS011;1368;49.484;11.112;2023-03-19T03:25:12;17.43;;;9.80;;
2720;SDS011;1368;49.484;11.112;2023-03-19T03:27:38;15.33;;;9.87;;
2720;SDS011;1368;49.484;11.112;2023-03-19T03:30:05;14.50;;;9.60;;
2720;SDS011;1368;49.484;11.112;2023-03-19T03:32:32;14.53;;;10.00;;
2720;SDS011;1368;49.484;11.112;2023-03-19T03:34:58;16.10;;;10.37;;
2720;SDS011;1368;49.484;11.112;2023-03-19T03:37:24;13.80;;;9.53;;
2720;SDS011;1368;49.484;11.112;2023-03-19T03:39:49;15.13;;;8.33;;
2720;SDS011;1368;49.484;11.112;2023-03-19T03:42:15;11.97;;;9.43;;
2720;SDS011;1368;49.484;11.112;2023-03-19T03:44:41;15.37;;;10.03;;
2720;SDS011;1368;49.484;11.112;2023-03-19T03:47:07;13.53;;;9.53;;
2720;SDS011;1368;49.484;11.112;2023-03-19T03:49:33;14.43;;;9.87;;
2720;SDS011;1368;49.484;11.112;2023-03-19T03:51:58;14.20;;;10.23;;
2720;SDS011;1368;49.484;11.112;2023-03-19T03:54:24;12.23;;;9.30;;
2720;SDS011;1368;49.484;11.112;2023-03-19T03:56:50;14.50;;;10.23;;
2720;SDS011;1368;49.484;11.112;2023-03-19T03:59:15;14.53;;;9.80;;
2720;SDS011;1368;49.484;11.112;2023-03-19T04:01:41;14.30;;;9.57;;
2720;SDS011;1368;49.484;11.112;2023-03-19T04:04:07;14.43;;;9.77;;
2720;SDS011;1368;49.484;11.112;2023-03-19T04:06:33;12.93;;;8.90;;
2720;SDS011;1368;49.484;11.112;2023-03-19T04:08:59;13.30;;;9.93;;
2720;SDS011;1368;49.484;11.112;2023-03-19T04:11:24;14.60;;;10.07;;
2720;SDS011;1368;49.484;11.112;2023-03-19T04:13:50;11.93;;;9.20;;
2720;SDS011;1368;49.484;11.112;2023-03-19T04:16:18;13.60;;;8.87;;
2720;SDS011;1368;49.484;11.112;2023-03-19T04:18:43;17.03;;;8.90;;
2720;SDS011;1368;49.484;11.112;2023-03-19T04:21:09;16.50;;;8.67;;
2720;SDS011;1368;49.484;11.112;2023-03-19T04:23:35;15.83;;;9.80;;
2720;SDS011;1368;49.484;11.112;2023-03-19T04:26:01;16.53;;;9.57;;
2720;SDS011;1368;49.484;11.112;2023-03-19T04:28:28;14.40;;;9.00;;
2720;SDS011;1368;49.484;11.112;2023-03-19T04:30:58;11.10;;;8.43;;
2720;SDS011;1368;49.484;11.112;2023-03-19T04:33:24;13.03;;;9.90;;
2720;SDS011;1368;49.484;11.112;2023-03-19T04:35:50;13.37;;;9.50;;
2720;SDS011;1368;49.484;11.112;2023-03-19T04:38:15;20.13;;;10.70;;
2720;SDS011;1368;49.484;11.112;2023-03-19T04:40:42;13.80;;;10.00;;
2720;SDS011;1368;49.484;11.112;2023-03-19T04:43:07;18.80;;;10.80;;
2720;SDS011;1368;49.484;11.112;2023-03-19T04:45:33;14.23;;;9.13;;
2720;SDS011;1368;49.484;11.112;2023-03-19T04:47:58;12.53;;;9.60;;
2720;SDS011;1368;49.484;11.112;2023-03-19T04:50:24;12.60;;;8.67;;
2720;SDS011;1368;49.484;11.112;2023-03-19T04:52:49;15.47;;;9.10;;
2720;SDS011;1368;49.484;11.112;2023-03-19T04:55:15;12.93;;;9.20;;
2720;SDS011;1368;49.484;11.112;2023-03-19T04:57:40;15.80;;;9.37;;
2720;SDS011;1368;49.484;11.112;2023-03-19T05:00:06;13.13;;;8.70;;
2720;SDS011;1368;49.484;11.112;2023-03-19T05:02:33;14.00;;;9.37;;
2720;SDS011;1368;49.484;11.112;2023-03-19T05:04:58;15.40;;;9.70;;
2720;SDS011;1368;49.484;11.112;2023-03-19T05:07:24;14.83;;;9.67;;
2720;SDS011;1368;49.484;11.112;2023-03-19T05:09:50;11.50;;;8.93;;
2720;SDS011;1368;49.484;11.112;2023-03-19T05:12:16;11.10;;;8.20;;
2720;SDS011;1368;49.484;11.112;2023-03-19T05:14:41;13.63;;;9.13;;
2720;SDS011;1368;49.484;11.112;2023-03-19T05:17:07;11.77;;;8.80;;
2720;SDS011;1368;49.484;11.112;2023-03-19T05:19:35;15.50;;;9.90;;
2720;SDS011;1368;49.484;11.112;2023-03-19T05:22:01;12.10;;;9.23;;
2720;SDS011;1368;49.484;11.112;2023-03-19T05:24:26;13.60;;;8.53;;
2720;SDS011;1368;49.484;11.112;2023-03-19T05:26:52;17.57;;;8.83;;
2720;SDS011;1368;49.484;11.112;2023-03-19T05:29:17;12.30;;;9.80;;
2720;SDS011;1368;49.484;11.112;2023-03-19T05:31:43;16.50;;;10.30;;
2720;SDS011;1368;49.484;11.112;2023-03-19T05:34:09;17.53;;;11.00;;
2720;SDS011;1368;49.484;11.112;2023-03-19T05:36:34;14.57;;;10.53;;
2720;SDS011;1368;49.484;11.112;2023-03-19T05:39:00;17.40;;;11.00;;
2720;SDS011;1368;49.484;11.112;2023-03-19T05:41:26;14.83;;;9.93;;
2720;SDS011;1368;49.484;11.112;2023-03-19T05:43:51;13.60;;;9.97;;
2720;SDS011;1368;49.484;11.112;2023-03-19T05:46:17;13.20;;;9.43;;
2720;SDS011;1368;49.484;11.112;2023-03-19T05:48:43;14.20;;;10.43;;
2720;SDS011;1368;49.484;11.112;2023-03-19T05:51:08;13.43;;;10.30;;
2720;SDS011;1368;49.484;11.112;2023-03-19T05:53:35;19.67;;;9.17;;
2720;SDS011;1368;49.484;11.112;2023-03-19T05:56:01;19.17;;;11.20;;
2720;SDS011;1368;49.484;11.112;2023-03-19T05:58:27;15.87;;;10.53;;
2720;SDS011;1368;49.484;11.112;2023-03-19T06:00:53;17.33;;;10.80;;
2720;SDS011;1368;49.484;11.112;2023-03-19T06:03:20;13.53;;;10.67;;
2720;SDS011;1368;49.484;11.112;2023-03-19T06:05:50;13.60;;;9.60;;
2720;SDS011;1368;49.484;11.112;2023-03-19T06:08:16;15.47;;;9.43;;
2720;SDS011;1368;49.484;11.112;2023-03-19T06:10:42;19.97;;;11.63;;
2720;SDS011;1368;49.484;11.112;2023-03-19T06:13:08;16.23;;;10.70;;
2720;SDS011;1368;49.484;11.112;2023-03-19T06:15:34;16.53;;;10.80;;
2720;SDS011;1368;49.484;11.112;2023-03-19T06:17:59;16.60;;;10.33;;
2720;SDS011;1368;49.484;11.112;2023-03-19T06:20:25;12.73;;;9.13;;
2720;SDS011;1368;49.484;11.112;2023-03-19T06:22:51;14.47;;;9.43;;
2720;SDS011;1368;49.484;11.112;2023-03-19T06:25:17;12.50;;;9.47;;
2720;SDS011;1368;49.484;11.112;2023-03-19T06:27:42;17.33;;;10.20;;
2720;SDS011;1368;49.484;11.112;2023-03-19T06:30:08;13.83;;;10.40;;
2720;SDS011;1368;49.484;11.112;2023-03-19T06:32:34;13.90;;;9.83;;
2720;SDS011;1368;49.484;11.112;2023-03-19T06:35:00;20.00;;;10.70;;
2720;SDS011;1368;49.484;11.112;2023-03-19T06:37:25;17.27;;;11.40;;
2720;SDS011;1368;49.484;11.112;2023-03-19T06:39:51;14.30;;;10.80;;
2720;SDS011;1368;49.484;11.112;2023-03-19T06:42:18;14.33;;;11.30;;
2720;SDS011;1368;49.484;11.112;2023-03-19T06:44:45;15.73;;;10.23;;
2720;SDS011;1368;49.484;11.112;2023-03-19T06:47:11;23.07;;;11.60;;
2720;SDS011;1368;49.484;11.112;2023-03-19T06:49:38;15.23;;;10.17;;
2720;SDS011;1368;49.484;11.112;2023-03-19T06:52:04;14.43;;;10.33;;
2720;SDS011;1368;49.484;11.112;2023-03-19T06:54:30;14.90;;;9.97;;
2720;SDS011;1368;49.484;11.112;2023-03-19T06:56:55;15.83;;;9.73;;
2720;SDS011;1368;49.484;11.112;2023-03-19T06:59:21;12.50;;;9.63;;
2720;SDS011;1368;49.484;11.112;2023-03-19T07:01:47;16.10;;;10.10;;
2720;SDS011;1368;49.484;11.112;2023-03-19T07:04:12;13.83;;;9.93;;
2720;SDS011;1368;49.484;11.112;2023-03-19T07:06:38;14.47;;;9.87;;
2720;SDS011;1368;49.484;11.112;2023-03-19T07:09:03;15.20;;;10.73;;
2720;SDS011;1368;49.484;11.112;2023-03-19T07:11:29;16.83;;;10.23;;
2720;SDS011;1368;49.484;11.112;2023-03-19T07:13:55;13.60;;;9.63;;
2720;SDS011;1368;49.484;11.112;2023-03-19T07:16:20;13.13;;;9.23;;
2720;SDS011;1368;49.484;11.112;2023-03-19T07:18:46;12.13;;;9.40;;
2720;SDS011;1368;49.484;11.112;2023-03-19T07:21:11;13.37;;;9.20;;
2720;SDS011;1368;49.484;11.112;2023-03-19T07:23:37;17.03;;;9.80;;
2720;SDS011;1368;49.484;11.112;2023-03-19T07:26:02;14.20;;;9.87;;
2720;SDS011;1368;49.484;11.112;2023-03-19T07:28:28;13.77;;;9.80;;
2720;SDS011;1368;49.484;11.112;2023-03-19T07:30:54;13.03;;;9.07;;
2720;SDS011;1368;49.484;11.112;2023-03-19T07:33:20;12.63;;;9.43;;
2720;SDS011;1368;49.484;11.112;2023-03-19T07:35:46;18.60;;;9.83;;
2720;SDS011;1368;49.484;11.112;2023-03-19T07:38:12;13.37;;;9.07;;
2720;SDS011;1368;49.484;11.112;2023-03-19T07:40:38;11.47;;;9.10;;
2720;SDS011;1368;49.484;11.112;2023-03-19T07:43:04;13.70;;;9.80;;
2720;SDS011;1368;49.484;11.112;2023-03-19T07:45:30;13.57;;;10.00;;
2720;SDS011;1368;49.484;11.112;2023-03-19T07:47:55;15.10;;;10.00;;
2720;SDS011;1368;49.484;11.112;2023-03-19T07:50:21;9.80;;;8.10;;
2720;SDS011;1368;49.484;11.112;2023-03-19T07:52:46;14.20;;;8.20;;
2720;SDS011;1368;49.484;11.112;2023-03-19T07:55:13;13.57;;;8.10;;
2720;SDS011;1368;49.484;11.112;2023-03-19T07:57:39;11.40;;;8.50;;
2720;SDS011;1368;49.484;11.112;2023-03-19T08:00:05;16.90;;;9.70;;
2720;SDS011;1368;49.484;11.112;2023-03-19T08:02:32;16.23;;;10.30;;
2720;SDS011;1368;49.484;11.112;2023-03-19T08:04:57;11.20;;;8.63;;
2720;SDS011;1368;49.484;11.112;2023-03-19T08:07:26;16.93;;;9.20;;
2720;SDS011;1368;49.484;11.112;2023-03-19T08:09:51;15.80;;;9.70;;
2720;SDS011;1368;49.484;11.112;2023-03-19T08:12:17;22.83;;;10.83;;
2720;SDS011;1368;49.484;11.112;2023-03-19T08:14:42;14.10;;;10.37;;
2720;SDS011;1368;49.484;11.112;2023-03-19T08:17:08;15.67;;;9.07;;
2720;SDS011;1368;49.484;11.112;2023-03-19T08:19:34;12.90;;;9.63;;
2720;SDS011;1368;49.484;11.112;2023-03-19T08:21:59;15.27;;;9.67;;
2720;SDS011;1368;49.484;11.112;2023-03-19T08:24:25;13.03;;;9.90;;
2720;SDS011;1368;49.484;11.112;2023-03-19T08:26:50;12.50;;;9.40;;
2720;SDS011;1368;49.484;11.112;2023-03-19T08:29:16;10.60;;;9.37;;
2720;SDS011;1368;49.484;11.112;2023-03-19T08:31:42;15.70;;;10.67;;
2720;SDS011;1368;49.484;11.112;2023-03-19T08:34:07;12.00;;;9.13;;
2720;SDS011;1368;49.484;11.112;2023-03-19T08:39:02;16.13;;;9.20;;
2720;SDS011;1368;49.484;11.112;2023-03-19T08:41:28;17.30;;;10.67;;
2720;SDS011;1368;49.484;11.112;2023-03-19T08:43:54;14.27;;;10.27;;
2720;SDS011;1368;49.484;11.112;2023-03-19T08:46:20;12.33;;;10.10;;
2720;SDS011;1368;49.484;11.112;2023-03-19T08:48:45;16.20;;;10.37;;
2720;SDS011;1368;49.484;11.112;2023-03-19T08:51:11;14.17;;;10.63;;
2720;SDS011;1368;49.484;11.112;2023-03-19T08:53:37;14.80;;;10.97;;
2720;SDS011;1368;49.484;11.112;2023-03-19T08:56:03;18.03;;;11.67;;
2720;SDS011;1368;49.484;11.112;2023-03-19T08:58:31;13.80;;;9.80;;
2720;SDS011;1368;49.484;11.112;2023-03-19T09:01:01;15.83;;;10.43;;
2720;SDS011;1368;49.484;11.112;2023-03-19T09:03:32;11.80;;;9.47;;
2720;SDS011;1368;49.484;11.112;2023-03-19T09:06:02;11.80;;;9.63;;
2720;SDS011;1368;49.484;11.112;2023-03-19T09:08:29;11.10;;;9.73;;
2720;SDS011;1368;49.484;11.112;2023-03-19T09:10:56;14.70;;;9.80;;
2720;SDS011;1368;49.484;11.112;2023-03-19T09:13:22;12.03;;;10.23;;
2720;SDS011;1368;49.484;11.112;2023-03-19T09:15:48;12.10;;;8.63;;
2720;SDS011;1368;49.484;11.112;2023-03-19T09:18:14;13.77;;;10.40;;
2720;SDS011;1368;49.484;11.112;2023-03-19T09:20:40;12.97;;;11.07;;
2720;SDS011;1368;49.484;11.112;2023-03-19T09:23:06;13.90;;;9.63;;
2720;SDS011;1368;49.484;11.112;2023-03-19T09:25:32;14.27;;;11.20;;
2720;SDS011;1368;49.484;11.112;2023-03-19T09:27:57;13.77;;;10.70;;
2720;SDS011;1368;49.484;11.112;2023-03-19T09:30:23;18.33;;;10.70;;
2720;SDS011;1368;49.484;11.112;2023-03-19T09:32:49;14.03;;;10.40;;
2720;SDS011;1368;49.484;11.112;2023-03-19T09:35:15;14.10;;;9.00;;
2720;SDS011;1368;49.484;11.112;2023-03-19T09:37:40;11.90;;;7.37;;
2720;SDS011;1368;49.484;11.112;2023-03-19T09:40:06;13.40;;;8.43;;
2720;SDS011;1368;49.484;11.112;2023-03-19T09:42:44;8.53;;;6.30;;
2720;SDS011;1368;49.484;11.112;2023-03-19T09:45:19;8.37;;;6.80;;
2720;SDS011;1368;49.484;11.112;2023-03-19T09:47:46;9.73;;;7.30;;
2720;SDS011;1368;49.484;11.112;2023-03-19T09:50:17;8.17;;;7.20;;
2720;SDS011;1368;49.484;11.112;2023-03-19T09:52:58;9.70;;;7.57;;
2720;SDS011;1368;49.484;11.112;2023-03-19T09:58:04;7.23;;;5.47;;
2720;SDS011;1368;49.484;11.112;2023-03-19T10:00:56;7.13;;;4.70;;
2720;SDS011;1368;49.484;11.112;2023-03-19T10:09:03;9.70;;;7.20;;
2720;SDS011;1368;49.484;11.112;2023-03-19T10:14:45;8.90;;;6.23;;
2720;SDS011;1368;49.484;11.112;2023-03-19T10:17:16;9.97;;;6.17;;
2720;SDS011;1368;49.484;11.112;2023-03-19T10:19:52;8.40;;;6.17;;
2720;SDS011;1368;49.484;11.112;2023-03-19T10:22:23;7.90;;;6.40;;
2720;SDS011;1368;49.484;11.112;2023-03-19T10:24:53;6.53;;;5.17;;
2720;SDS011;1368;49.484;11.112;2023-03-19T10:27:22;7.83;;;5.00;;
2720;SDS011;1368;49.484;11.112;2023-03-19T10:29:50;7.73;;;5.27;;
2720;SDS011;1368;49.484;11.112;2023-03-19T10:34:45;6.67;;;4.93;;
2720;SDS011;1368;49.484;11.112;2023-03-19T10:39:51;9.30;;;6.23;;
2720;SDS011;1368;49.484;11.112;2023-03-19T10:42:25;9.43;;;8.13;;
2720;SDS011;1368;49.484;11.112;2023-03-19T10:47:51;15.20;;;10.03;;
2720;SDS011;1368;49.484;11.112;2023-03-19T10:50:18;10.90;;;9.73;;
2720;SDS011;1368;49.484;11.112;2023-03-19T10:52:50;15.87;;;9.60;;
2720;SDS011;1368;49.484;11.112;2023-03-19T10:55:31;13.77;;;9.50;;
2720;SDS011;1368;49.484;11.112;2023-03-19T10:58:04;11.20;;;9.30;;
2720;SDS011;1368;49.484;11.112;2023-03-19T11:00:38;16.27;;;10.43;;
2720;SDS011;1368;49.484;11.112;2023-03-19T11:03:09;12.00;;;9.37;;
2720;SDS011;1368;49.484;11.112;2023-03-19T11:06:02;14.20;;;10.87;;
2720;SDS011;1368;49.484;11.112;2023-03-19T11:08:40;12.80;;;9.97;;
2720;SDS011;1368;49.484;11.112;2023-03-19T11:11:21;14.00;;;9.80;;
2720;SDS011;1368;49.484;11.112;2023-03-19T11:13:48;9.83;;;8.63;;
2720;SDS011;1368;49.484;11.112;2023-03-19T11:16:14;11.40;;;9.20;;
2720;SDS011;1368;49.484;11.112;2023-03-19T11:18:40;11.13;;;9.90;;
2720;SDS011;1368;49.484;11.112;2023-03-19T11:21:07;10.47;;;8.00;;
2720;SDS011;1368;49.484;11.112;2023-03-19T11:23:46;11.10;;;8.30;;
2720;SDS011;1368;49.484;11.112;2023-03-19T11:26:17;9.37;;;6.37;;
2720;SDS011;1368;49.484;11.112;2023-03-19T11:28:43;8.53;;;7.23;;
2720;SDS011;1368;49.484;11.112;2023-03-19T11:37:46;7.87;;;5.83;;
2720;SDS011;1368;49.484;11.112;2023-03-19T11:51:29;5.97;;;5.37;;
2720;SDS011;1368;49.484;11.112;2023-03-19T11:59:34;6.97;;;6.10;;
2720;SDS011;1368;49.484;11.112;2023-03-19T12:05:11;8.80;;;5.80;;
2720;SDS011;1368;49.484;11.112;2023-03-19T12:07:57;8.60;;;5.03;;
2720;SDS011;1368;49.484;11.112;2023-03-19T12:10:28;7.23;;;5.30;;
2720;SDS011;1368;49.484;11.112;2023-03-19T12:21:34;3.83;;;3.00;;
2720;SDS011;1368;49.484;11.112;2023-03-19T12:24:26;5.97;;;4.30;;
2720;SDS011;1368;49.484;11.112;2023-03-19T12:32:55;7.83;;;3.37;;
2720;SDS011;1368;49.484;11.112;2023-03-19T12:35:26;5.07;;;3.30;;
2720;SDS011;1368;49.484;11.112;2023-03-19T12:37:59;6.07;;;3.50;;
2720;SDS011;1368;49.484;11.112;2023-03-19T12:43:32;6.13;;;3.20;;
2720;SDS011;1368;49.484;11.112;2023-03-19T12:46:08;13.53;;;3.67;;
2720;SDS011;1368;49.484;11.112;2023-03-19T12:48:39;9.50;;;3.40;;
2720;SDS011;1368;49.484;11.112;2023-03-19T12:51:21;4.93;;;3.13;;
2720;SDS011;1368;49.484;11.112;2023-03-19T12:56:28;4.60;;;3.30;;
2720;SDS011;1368;49.484;11.112;2023-03-19T12:59:20;6.00;;;4.17;;
2720;SDS011;1368;49.484;11.112;2023-03-19T13:01:49;5.60;;;4.00;;
2720;SDS011;1368;49.484;11.112;2023-03-19T13:04:32;5.53;;;3.70;;
2720;SDS011;1368;49.484;11.112;2023-03-19T13:07:03;5.00;;;4.37;;
2720;SDS011;1368;49.484;11.112;2023-03-19T13:09:39;5.27;;;3.80;;
2720;SDS011;1368;49.484;11.112;2023-03-19T13:12:10;6.27;;;4.00;;
2720;SDS011;1368;49.484;11.112;2023-03-19T13:14:54;4.80;;;3.93;;
2720;SDS011;1368;49.484;11.112;2023-03-19T13:22:56;6.20;;;4.43;;
2720;SDS011;1368;49.484;11.112;2023-03-19T13:25:28;4.43;;;3.60;;
2720;SDS011;1368;49.484;11.112;2023-03-19T13:27:58;9.73;;;4.13;;
2720;SDS011;1368;49.484;11.112;2023-03-19T13:30:24;6.10;;;4.40;;
2720;SDS011;1368;49.484;11.112;2023-03-19T13:35:39;5.83;;;3.90;;
2720;SDS011;1368;49.484;11.112;2023-03-19T13:38:14;8.27;;;4.03;;
2720;SDS011;1368;49.484;11.112;2023-03-19T13:40:44;6.80;;;4.50;;
2720;SDS011;1368;49.484;11.112;2023-03-19T13:45:49;6.53;;;3.90;;
2720;SDS011;1368;49.484;11.112;2023-03-19T13:48:36;6.00;;;3.90;;
2720;SDS011;1368;49.484;11.112;2023-03-19T13:51:04;5.17;;;4.10;;
2720;SDS011;1368;49.484;11.112;2023-03-19T13:54:05;5.10;;;4.30;;
2720;SDS011;1368;49.484;11.112;2023-03-19T13:59:35;9.70;;;4.10;;
2720;SDS011;1368;49.484;11.112;2023-03-19T14:04:54;7.83;;;4.00;;
2720;SDS011;1368;49.484;11.112;2023-03-19T14:07:23;6.10;;;4.03;;
2720;SDS011;1368;49.484;11.112;2023-03-19T14:12:28;6.50;;;3.93;;
2720;SDS011;1368;49.484;11.112;2023-03-19T14:17:38;5.30;;;4.10;;
2720;SDS011;1368;49.484;11.112;2023-03-19T14:22:36;5.83;;;3.70;;
2720;SDS011;1368;49.484;11.112;2023-03-19T14:27:44;5.00;;;3.20;;
2720;SDS011;1368;49.484;11.112;2023-03-19T14:33:14;7.33;;;2.93;;
2720;SDS011;1368;49.484;11.112;2023-03-19T14:35:56;7.47;;;5.00;;
2720;SDS011;1368;49.484;11.112;2023-03-19T14:38:36;3.93;;;2.77;;
2720;SDS011;1368;49.484;11.112;2023-03-19T14:41:04;6.73;;;3.10;;
2720;SDS011;1368;49.484;11.112;2023-03-19T14:43:44;3.83;;;2.87;;
2720;SDS011;1368;49.484;11.112;2023-03-19T14:54:45;5.73;;;3.40;;
2720;SDS011;1368;49.484;11.112;2023-03-19T14:57:20;5.80;;;3.50;;
2720;SDS011;1368;49.484;11.112;2023-03-19T14:59:50;7.40;;;3.20;;
2720;SDS011;1368;49.484;11.112;2023-03-19T15:03:01;5.33;;;3.70;;
2720;SDS011;1368;49.484;11.112;2023-03-19T15:08:11;7.23;;;3.53;;
2720;SDS011;1368;49.484;11.112;2023-03-19T15:10:47;6.97;;;3.50;;
2720;SDS011;1368;49.484;11.112;2023-03-19T15:13:28;10.73;;;4.03;;
2720;SDS011;1368;49.484;11.112;2023-03-19T15:16:24;5.00;;;3.37;;
2720;SDS011;1368;49.484;11.112;2023-03-19T15:18:58;4.13;;;2.93;;
2720;SDS011;1368;49.484;11.112;2023-03-19T15:21:24;6.67;;;3.60;;
2720;SDS011;1368;49.484;11.112;2023-03-19T15:23:52;4.77;;;3.47;;
2720;SDS011;1368;49.484;11.112;2023-03-19T15:26:36;5.37;;;3.13;;
2720;SDS011;1368;49.484;11.112;2023-03-19T15:29:02;4.90;;;3.00;;
2720;SDS011;1368;49.484;11.112;2023-03-19T15:31:40;5.70;;;3.57;;
2720;SDS011;1368;49.484;11.112;2023-03-19T15:34:17;6.90;;;3.13;;
2720;SDS011;1368;49.484;11.112;2023-03-19T15:36:58;4.97;;;3.40;;
2720;SDS011;1368;49.484;11.112;2023-03-19T15:39:28;4.90;;;3.20;;
2720;SDS011;1368;49.484;11.112;2023-03-19T15:41:59;5.20;;;2.90;;
2720;SDS011;1368;49.484;11.112;2023-03-19T15:44:38;4.37;;;2.97;;
2720;SDS011;1368;49.484;11.112;2023-03-19T15:47:10;4.87;;;3.13;;
2720;SDS011;1368;49.484;11.112;2023-03-19T15:49:43;4.40;;;2.50;;
2720;SDS011;1368;49.484;11.112;2023-03-19T15:52:15;7.00;;;2.90;;
2720;SDS011;1368;49.484;11.112;2023-03-19T15:54:42;5.70;;;2.80;;
2720;SDS011;1368;49.484;11.112;2023-03-19T15:57:08;4.63;;;2.60;;
2720;SDS011;1368;49.484;11.112;2023-03-19T15:59:38;5.03;;;2.60;;
2720;SDS011;1368;49.484;11.112;2023-03-19T16:02:10;3.87;;;2.80;;
2720;SDS011;1368;49.484;11.112;2023-03-19T16:04:45;4.43;;;2.33;;
2720;SDS011;1368;49.484;11.112;2023-03-19T16:07:25;5.00;;;2.90;;
2720;SDS011;1368;49.484;11.112;2023-03-19T16:09:57;4.50;;;3.27;;
2720;SDS011;1368;49.484;11.112;2023-03-19T16:15:18;8.03;;;2.97;;
2720;SDS011;1368;49.484;11.112;2023-03-19T16:20:42;4.87;;;2.50;;
2720;SDS011;1368;49.484;11.112;2023-03-19T16:23:13;6.20;;;3.00;;
2720;SDS011;1368;49.484;11.112;2023-03-19T16:25:43;5.30;;;2.83;;
2720;SDS011;1368;49.484;11.112;2023-03-19T16:28:14;4.90;;;3.10;;
2720;SDS011;1368;49.484;11.112;2023-03-19T16:30:48;5.43;;;2.47;;
2720;SDS011;1368;49.484;11.112;2023-03-19T16:33:14;4.23;;;2.57;;
2720;SDS011;1368;49.484;11.112;2023-03-19T16:35:40;7.27;;;4.23;;
2720;SDS011;1368;49.484;11.112;2023-03-19T16:38:24;5.20;;;3.00;;
2720;SDS011;1368;49.484;11.112;2023-03-19T16:41:37;5.13;;;3.00;;
2720;SDS011;1368;49.484;11.112;2023-03-19T16:43:43;9.10;;;4.07;;
2720;SDS011;1368;49.484;11.112;2023-03-19T16:46:11;4.40;;;2.63;;
2720;SDS011;1368;49.484;11.112;2023-03-19T16:48:37;6.33;;;3.27;;
2720;SDS011;1368;49.484;11.112;2023-03-19T16:51:04;7.43;;;3.90;;
2720;SDS011;1368;49.484;11.112;2023-03-19T16:53:50;5.90;;;3.33;;
2720;SDS011;1368;49.484;11.112;2023-03-19T16:56:15;5.47;;;3.10;;
2720;SDS011;1368;49.484;11.112;2023-03-19T16:58:43;8.23;;;4.03;;